Tampa International Airport
KTPA : now visible

Airfield :











YOU CAN JOIN US ON...

 
LOGIN :

Register | Disclaimer

   EN    FR    IT 

 









Legend :    VFR   Marginal VFR   IFR   Intensive IFR   Very Intensive IFR
Visi :
Ceiling :
>= 8 km
>= 3000ft
5 to 8 km
1000 to 3000 ft
1500m to 5 km
500 to 1000 ft
800 to 1500m
200 to 500 ft
< 800m
< 200 ft
Symbols :   Thunderstorms  Fog  Heavy snow  Heavy precipitations  Wind > 20 kt






- Airport Elevation : 26 ft
- IATA code : TPA


KTPA - Tampa International

CURRENT METAR :
  • 021853Z 26008KT 10SM TS SCT035CB BKN050 BKN220 32/24 A3002 RMK AO2 LTG DSNT N-SE RAE02 TSB21 SLP163 OCNL LTGIC VC N-SE TS VC N-SE MOV E P0000 T03170244

EXPIRED METARs :
  • 021822Z 23010KT 10SM TS SCT035CB BKN055 32/26 A3003 RMK AO2 LTG DSNT N-SE RAE02 TSB21 OCNL LTGIC N-SE TS N-SE MOV E SHRA DSNT E P0000 T03220256
  • 021753Z 25007KT 8SM VCTS -RA SCT035CB BKN055 31/26 A3003 RMK AO2 LTG DSNT N-E RAE02B45 SLP169 CB N-SE MOV E P0001 60030 T03060261 10322 20278 55008
  • 021724Z 23008KT 10SM SCT030 BKN045 BKN080 32/26 A3004 RMK AO2 LTG DSNT NW RAE02 CB DSNT NE-SE P0001 T03220261
  • 021706Z 00000KT 7SM VCTS SCT026 SCT035CB BKN050 OVC250 30/24 A3004 RMK AO2 LTG DSNT NW-E RAE02 CB ALQDS MOV E P0001 T03000244
  • 021653Z VRB03G21KT 1SM VCTS RA SCT022 BKN035CB OVC055 28/23 A3005 RMK AO2 LTG DSNT NW-E RAE02B20 TSE01 SLP174 CB ALQDS MOV E P0029 T02830233 RVRNO
  • 021637Z 28005KT 8SM VCTS -RA SCT033CB BKN055 BKN250 31/26 A3005 RMK AO2 LTG DSNT NE AND E RAE02B20 TSE01 CB ALQDS MOV E P0003 T03110256
  • 021624Z 25003KT 10SM RA SCT030CB BKN060 BKN250 30/25 A3005 RMK AO2 LTG DSNT NE RAE02B20 TSE01 CB ALQDS MOV E P0002 T03000250

TAF KTPA
Valid from the 02 at 18:00 until the 04 at 00:00 UTC


021739Z 0218/0324 24008KT P6SM VCTS SCT030CB BKN050
FM022200 24008KT P6SM SCT040 SCT130 BKN250
FM030100 22006KT P6SM FEW025 BKN250
FM030800 21008KT P6SM VCSH SCT025 BKN250
TEMPO 0308/0312 BKN025
FM031200 22009KT P6SM VCTS BKN025CB
FM031800 22011KT P6SM SCT035 SCT130 BKN250
KZJX FIR / North America



MET'MAP, your aeronautical weather chart ! - Copyright ORBIFLY December 2007 - Disclaimer

ORBIFLY MET'MAP TEAM :

Programming & Development : Alexandra Zaïnal
Concept & original design : Baudouin d'Aumeries
Assistance for programming : Marc-Olivier Méhu
Technical & hardware support : Manuel Goepfert

Contact : metmap@orbifly.com




SOURCES & CREDITS :

   NOAA       Earth
Advisory